Time;durP1;ratioP1;P1;durP2;ratioP2;P2;SDS_P1;SDS_P2;PMS_P1;PMS_P2;Temp;Humidity;BMP_temperature;BMP_pressure;BME280_temperature;BME280_humidity;BME280_pressure;Samples;Min_cycle;Max_cycle;Signal;HPM_P1;HPM_P2
2021/08/03 00:04:27;;;;;;;1.90;1.13;;;17.90;91.00;;;;;;4995741;28;20050;-83
2021/08/03 00:06:57;;;;;;;1.83;1.05;;;17.90;90.80;;;;;;4997086;28;20059;-83
2021/08/03 00:09:28;;;;;;;3.45;0.95;;;17.90;90.70;;;;;;4996713;28;20119;-80
2021/08/03 00:11:54;;;;;;;7.97;1.35;;;17.90;90.70;;;;;;4975833;28;20027;-79
2021/08/03 00:14:20;;;;;;;2.47;0.95;;;17.90;90.60;;;;;;4980579;28;20027;-81
2021/08/03 00:16:48;;;;;;;4.38;0.80;;;17.80;90.50;;;;;;4996650;28;20093;-81
2021/08/03 00:19:15;;;;;;;5.00;0.82;;;17.80;90.50;;;;;;4963093;28;20050;-81
2021/08/03 00:21:46;;;;;;;1.77;0.50;;;17.80;90.40;;;;;;4978145;28;20023;-80
2021/08/03 00:24:13;;;;;;;3.15;0.60;;;17.80;90.40;;;;;;4993928;28;20047;-81
2021/08/03 00:26:39;;;;;;;2.85;0.73;;;17.70;90.40;;;;;;4992042;28;20037;-81
2021/08/03 00:29:06;;;;;;;4.40;0.82;;;17.80;90.50;;;;;;4976839;28;20022;-80
2021/08/03 00:31:31;;;;;;;1.58;0.73;;;17.80;90.50;;;;;;4994589;28;20031;-80
2021/08/03 00:33:57;;;;;;;2.58;0.77;;;17.80;90.70;;;;;;4973602;28;20021;-81
2021/08/03 00:36:29;;;;;;;3.00;0.80;;;17.70;90.80;;;;;;4999418;28;20539;-81
2021/08/03 00:38:55;;;;;;;3.75;0.70;;;17.70;90.90;;;;;;4978611;28;20018;-81
2021/08/03 00:41:24;;;;;;;2.20;0.50;;;17.70;91.10;;;;;;4982592;28;20019;-80
2021/08/03 00:43:50;;;;;;;1.83;0.80;;;17.60;91.30;;;;;;4997732;28;20026;-82
2021/08/03 00:46:16;;;;;;;1.42;0.60;;;17.50;91.40;;;;;;4998738;28;20042;-79
2021/08/03 00:48:42;;;;;;;1.85;0.70;;;17.50;91.60;;;;;;4983290;28;20019;-80
2021/08/03 00:51:12;;;;;;;3.08;1.00;;;17.40;91.70;;;;;;4998943;28;20070;-79
2021/08/03 00:53:44;;;;;;;5.05;1.05;;;17.40;91.70;;;;;;4982149;28;20067;-79
2021/08/03 00:56:10;;;;;;;3.17;0.75;;;17.30;91.80;;;;;;4997477;28;20046;-79
2021/08/03 00:58:39;;;;;;;5.18;0.50;;;17.30;91.80;;;;;;4994661;28;20015;-79
2021/08/03 01:01:05;;;;;;;3.58;0.77;;;17.30;91.60;;;;;;4992135;28;20035;-78
2021/08/03 01:03:30;;;;;;;3.58;0.63;;;17.30;91.30;;;;;;4992702;28;20031;-78
2021/08/03 01:06:25;;;;;;;1.90;0.68;;;17.30;91.20;;;;;;4993734;28;20094;-78
2021/08/03 01:09:15;;;;;;;2.30;0.82;;;17.30;91.00;;;;;;4977444;28;20034;-78
2021/08/03 01:11:55;;;;;;;2.75;0.55;;;17.30;90.70;;;;;;4994029;28;20027;-79
2021/08/03 01:15:02;;;;;;;0.90;0.50;;;17.40;90.40;;;;;;4992937;28;20039;-79
2021/08/03 01:18:08;;;;;;;1.17;0.50;;;17.40;89.90;;;;;;4991894;28;20033;-79
2021/08/03 01:20:52;;;;;;;2.63;0.70;;;17.50;88.70;;;;;;4979564;28;20031;-78
2021/08/03 01:23:40;;;;;;;2.17;0.77;;;17.50;87.50;;;;;;5001379;28;20082;-79
2021/08/03 01:26:48;;;;;;;0.70;0.50;;;17.60;86.20;;;;;;4988757;28;20022;-80
2021/08/03 01:29:18;;;;;;;1.75;0.50;;;17.70;85.20;;;;;;5004892;28;20034;-79
2021/08/03 01:31:49;;;;;;;1.58;0.50;;;17.80;84.40;;;;;;5004998;28;20031;-81
2021/08/03 01:34:19;;;;;;;3.80;0.52;;;17.90;83.50;;;;;;5004387;28;20027;-81
2021/08/03 01:36:56;;;;;;;2.63;0.50;;;18.00;83.10;;;;;;5002696;28;20057;-83
2021/08/03 01:39:31;;;;;;;1.58;0.60;;;18.00;82.50;;;;;;4984154;28;20089;-84
2021/08/03 01:45:26;;;;;;;4.20;1.75;;;18.10;81.70;;;;;;4994576;28;20142;-84
2021/08/03 01:47:52;;;;;;;1.65;0.85;;;18.10;82.80;;;;;;4994169;28;20122;-84
2021/08/03 01:51:22;;;;;;;4.00;0.70;;;18.00;84.30;;;;;;4994630;28;20053;-82
2021/08/03 01:54:01;;;;;;;1.10;0.50;;;17.90;85.60;;;;;;5002856;28;20030;-81
2021/08/03 01:56:35;;;;;;;1.35;0.50;;;17.80;86.30;;;;;;5003765;28;20034;-81
2021/08/03 01:59:32;;;;;;;1.70;0.60;;;17.70;86.80;;;;;;5003913;28;20042;-80
2021/08/03 02:02:06;;;;;;;1.23;0.50;;;17.60;87.50;;;;;;4966809;28;20096;-82
2021/08/03 02:04:34;;;;;;;3.65;0.60;;;17.50;88.50;;;;;;4988194;28;20018;-80
2021/08/03 02:07:01;;;;;;;1.88;0.52;;;17.50;89.40;;;;;;5004719;28;20022;-80
2021/08/03 02:09:28;;;;;;;0.95;0.50;;;17.30;89.60;;;;;;5004494;28;20030;-79
2021/08/03 02:12:28;;;;;;;0.95;0.50;;;17.20;90.40;;;;;;5004226;28;20025;-79
2021/08/03 02:15:36;;;;;;;0.82;0.50;;;17.10;91.00;;;;;;4944745;28;20055;-79
2021/08/03 02:18:05;;;;;;;1.10;0.50;;;17.00;91.60;;;;;;4968237;28;20035;-79
2021/08/03 02:20:31;;;;;;;1.30;0.65;;;16.90;91.80;;;;;;5003319;28;20011;-80
2021/08/03 02:22:57;;;;;;;5.47;0.60;;;16.90;92.20;;;;;;5001448;28;20050;-79
2021/08/03 02:25:27;;;;;;;1.65;0.70;;;16.70;92.00;;;;;;5002782;28;20027;-79
2021/08/03 02:27:55;;;;;;;4.70;0.60;;;16.70;92.40;;;;;;5003678;28;20014;-79
2021/08/03 02:30:23;;;;;;;1.45;0.60;;;16.60;92.50;;;;;;5002630;28;20007;-80
2021/08/03 02:33:08;;;;;;;1.27;0.80;;;16.50;92.60;;;;;;4983582;28;20011;-79
2021/08/03 02:35:56;;;;;;;4.60;0.68;;;16.60;93.10;;;;;;4999223;28;20043;-79
2021/08/03 02:38:25;;;;;;;1.25;0.70;;;16.40;92.90;;;;;;4999528;28;20066;-79
2021/08/03 02:40:56;;;;;;;1.98;0.50;;;16.30;93.20;;;;;;4984171;28;20037;-79
2021/08/03 02:43:24;;;;;;;3.05;0.60;;;16.30;93.30;;;;;;4999979;28;20034;-79
2021/08/03 02:46:00;;;;;;;2.22;0.60;;;16.20;93.40;;;;;;5000804;28;20043;-80
2021/08/03 02:48:33;;;;;;;3.50;0.60;;;16.30;93.70;;;;;;4983613;28;20011;-77
2021/08/03 02:51:01;;;;;;;3.63;0.70;;;16.20;93.40;;;;;;5000408;28;20018;-77
2021/08/03 02:53:45;;;;;;;1.55;0.70;;;16.30;93.60;;;;;;4998482;28;20023;-78
2021/08/03 02:56:14;;;;;;;4.05;0.75;;;16.20;93.70;;;;;;4982946;28;20031;-77
2021/08/03 02:58:46;;;;;;;1.88;0.65;;;16.30;93.50;;;;;;5000671;28;20090;-77
2021/08/03 03:01:15;;;;;;;3.88;0.77;;;16.20;93.50;;;;;;4999754;28;20046;-77
2021/08/03 03:03:52;;;;;;;1.52;0.63;;;16.10;93.40;;;;;;5000046;28;20026;-77
2021/08/03 03:06:22;;;;;;;1.70;0.75;;;16.10;93.40;;;;;;4999642;28;20015;-78
2021/08/03 03:08:50;;;;;;;2.33;0.75;;;16.20;93.70;;;;;;4998861;28;20038;-78
2021/08/03 03:11:19;;;;;;;6.03;0.60;;;16.10;93.80;;;;;;4998037;28;20037;-78
2021/08/03 03:13:56;;;;;;;1.38;0.50;;;16.20;93.90;;;;;;4999039;28;20027;-78
2021/08/03 03:16:24;;;;;;;1.30;0.57;;;16.20;93.60;;;;;;4998252;28;20041;-77
2021/08/03 03:18:56;;;;;;;1.40;0.65;;;16.20;93.60;;;;;;4982718;28;20026;-78
2021/08/03 03:21:24;;;;;;;1.60;0.70;;;16.10;93.80;;;;;;4995246;28;20022;-78
2021/08/03 03:23:53;;;;;;;5.68;0.93;;;16.20;94.20;;;;;;4966235;28;20011;-78
2021/08/03 03:26:24;;;;;;;2.42;0.73;;;16.20;94.00;;;;;;4996843;28;20027;-78
2021/08/03 03:28:52;;;;;;;1.30;0.70;;;16.10;94.10;;;;;;4982509;28;20086;-79
2021/08/03 03:31:23;;;;;;;2.53;0.60;;;16.00;94.30;;;;;;4965512;28;20058;-77
2021/08/03 03:33:55;;;;;;;1.25;0.80;;;16.00;94.40;;;;;;4998640;28;20054;-78
2021/08/03 03:36:27;;;;;;;7.65;0.52;;;16.00;94.60;;;;;;4998291;28;20061;-76
2021/08/03 03:38:54;;;;;;;0.65;0.45;;;16.00;94.70;;;;;;4999028;28;20007;-77
2021/08/03 03:41:24;;;;;;;1.05;0.50;;;16.00;94.90;;;;;;4981716;28;20018;-78
2021/08/03 04:18:47;;;;;;;2.83;0.80;;;16.10;95.80;;;;;;6079214;23;20992;-78
2021/08/03 04:21:13;;;;;;;4.13;0.93;;;16.20;95.80;;;;;;5013570;28;20022;-77
2021/08/03 04:23:39;;;;;;;2.35;0.75;;;16.40;95.70;;;;;;5001470;28;20033;-77
2021/08/03 04:26:05;;;;;;;1.23;0.70;;;16.60;95.00;;;;;;5018019;28;20017;-78
2021/08/03 04:28:30;;;;;;;2.00;0.80;;;16.80;94.70;;;;;;5000921;28;20021;-78
2021/08/03 04:30:59;;;;;;;2.00;0.80;;;17.00;94.50;;;;;;5017322;28;20030;-78
2021/08/03 04:33:26;;;;;;;3.40;0.68;;;17.20;94.30;;;;;;4993728;28;20019;-79
2021/08/03 04:35:51;;;;;;;3.85;0.60;;;17.30;94.20;;;;;;4992204;28;20038;-80
2021/08/03 04:38:17;;;;;;;4.95;0.50;;;17.40;94.00;;;;;;4986190;28;20522;-79
2021/08/03 04:40:44;;;;;;;1.25;0.57;;;17.50;93.90;;;;;;4979261;28;20068;-84
2021/08/03 04:43:09;;;;;;;2.00;0.63;;;17.60;93.90;;;;;;4989139;28;20037;-87
2021/08/03 04:45:35;;;;;;;2.95;0.65;;;17.70;93.80;;;;;;4970749;28;20077;-86
2021/08/03 04:48:01;;;;;;;2.08;0.65;;;17.80;93.70;;;;;;4970081;28;20654;-81
2021/08/03 04:50:28;;;;;;;0.63;0.40;;;18.00;93.50;;;;;;4988113;28;20030;-87
2021/08/03 04:52:55;;;;;;;3.65;0.60;;;18.20;92.80;;;;;;4986357;28;20038;-86
2021/08/03 04:55:21;;;;;;;2.88;0.70;;;18.40;92.80;;;;;;4987172;28;20040;-86
2021/08/03 04:57:47;;;;;;;1.13;0.60;;;18.50;92.60;;;;;;4987702;28;20116;-86
2021/08/03 05:00:15;;;;;;;2.38;0.60;;;18.60;92.20;;;;;;4987627;28;20062;-86
2021/08/03 05:02:42;;;;;;;1.65;0.52;;;18.70;91.60;;;;;;4987848;28;20049;-86
2021/08/03 05:05:09;;;;;;;0.95;0.45;;;18.80;91.40;;;;;;4986417;28;20030;-87
2021/08/03 05:07:35;;;;;;;1.20;0.63;;;18.90;91.40;;;;;;4986489;28;20066;-85
2021/08/03 05:10:13;;;;;;;7.22;0.80;;;19.00;91.00;;;;;;4985601;28;20062;-86
2021/08/03 05:12:39;;;;;;;3.20;0.50;;;19.10;90.40;;;;;;4969911;28;20034;-83
2021/08/03 05:15:07;;;;;;;5.90;0.60;;;19.20;90.10;;;;;;4986384;28;20038;-86
2021/08/03 05:17:34;;;;;;;3.85;0.80;;;19.30;89.40;;;;;;4986380;28;20172;-87
2021/08/03 05:20:00;;;;;;;2.47;0.60;;;19.40;88.80;;;;;;4987379;28;20054;-86
2021/08/03 05:22:27;;;;;;;7.20;1.02;;;19.50;88.60;;;;;;4986128;28;20026;-87
2021/08/03 05:24:53;;;;;;;3.15;0.70;;;19.70;88.50;;;;;;4986276;28;20037;-87
2021/08/03 05:27:20;;;;;;;1.60;0.50;;;19.80;87.60;;;;;;4986081;28;20022;-85
2021/08/03 05:29:46;;;;;;;1.67;0.50;;;20.00;86.70;;;;;;4986236;28;20040;-84
2021/08/03 05:32:12;;;;;;;2.15;0.60;;;20.10;85.30;;;;;;4969479;28;20487;-88
2021/08/03 05:34:37;;;;;;;1.17;0.50;;;20.40;83.80;;;;;;4986160;28;20061;-87
2021/08/03 05:37:07;;;;;;;1.25;0.70;;;20.60;83.30;;;;;;4986311;28;20302;-86
2021/08/03 05:39:33;;;;;;;2.70;0.80;;;20.70;83.10;;;;;;4985846;28;20022;-88
2021/08/03 05:42:00;;;;;;;3.03;1.13;;;20.80;82.30;;;;;;4985567;28;20117;-85
2021/08/03 05:44:26;;;;;;;5.47;0.60;;;21.00;80.40;;;;;;4986095;28;20189;-85
2021/08/03 05:46:52;;;;;;;2.50;0.60;;;21.30;79.00;;;;;;4985887;28;20041;-87
2021/08/03 05:49:17;;;;;;;2.38;0.70;;;21.50;78.10;;;;;;4986113;28;20557;-86
2021/08/03 05:51:43;;;;;;;3.45;0.50;;;21.70;76.80;;;;;;4986006;28;20422;-85
2021/08/03 05:54:09;;;;;;;5.32;1.77;;;21.90;75.10;;;;;;4985628;28;20750;-84
2021/08/03 05:56:36;;;;;;;2.45;0.98;;;22.10;75.40;;;;;;4969879;28;20018;-81
2021/08/03 05:59:02;;;;;;;2.65;0.80;;;22.40;74.70;;;;;;4986244;28;20026;-80
2021/08/03 06:01:28;;;;;;;3.78;0.88;;;22.80;72.40;;;;;;4969588;28;20034;-81
2021/08/03 06:03:53;;;;;;;1.27;0.63;;;23.10;69.90;;;;;;4969097;28;20027;-81
2021/08/03 06:06:20;;;;;;;1.85;0.70;;;23.40;67.30;;;;;;4989160;28;20183;-81
2021/08/03 06:08:47;;;;;;;2.45;0.80;;;23.90;65.40;;;;;;4972275;28;20046;-81
2021/08/03 06:11:21;;;;;;;1.85;0.65;;;24.40;66.00;;;;;;4990386;28;20864;-80
2021/08/03 06:13:48;;;;;;;3.63;0.80;;;25.00;65.50;;;;;;4988649;28;20372;-80
2021/08/03 06:16:19;;;;;;;2.90;0.85;;;26.00;61.80;;;;;;4989352;28;20781;-79
2021/08/03 06:18:46;;;;;;;2.17;1.20;;;26.80;58.50;;;;;;4972707;28;20030;-80
2021/08/03 06:21:13;;;;;;;1.45;0.73;;;27.60;56.10;;;;;;4988988;28;20058;-80
2021/08/03 06:23:42;;;;;;;2.00;0.90;;;28.60;52.70;;;;;;4988628;28;20023;-80
2021/08/03 06:26:09;;;;;;;6.45;1.00;;;29.60;49.90;;;;;;4972500;28;20065;-83
2021/08/03 06:28:35;;;;;;;3.60;1.33;;;31.00;45.60;;;;;;4990183;28;20037;-82
2021/08/03 06:31:03;;;;;;;3.42;1.20;;;31.10;44.40;;;;;;4988493;28;20072;-83
2021/08/03 06:33:29;;;;;;;3.10;1.30;;;31.80;42.50;;;;;;4990291;28;20033;-82
2021/08/03 06:35:55;;;;;;;1.83;1.08;;;31.90;42.00;;;;;;4988420;28;20045;-83
2021/08/03 06:38:21;;;;;;;1.88;1.00;;;32.20;41.90;;;;;;4971639;28;20022;-83
2021/08/03 06:40:53;;;;;;;3.28;1.23;;;32.70;40.50;;;;;;4989601;28;20034;-83
2021/08/03 06:43:23;;;;;;;3.85;1.40;;;33.10;39.00;;;;;;4988240;28;20090;-82
2021/08/03 06:45:56;;;;;;;4.97;1.50;;;33.30;39.20;;;;;;4989169;28;20102;-83
2021/08/03 06:48:40;;;;;;;2.78;1.48;;;33.70;38.50;;;;;;4988065;28;20570;-84
2021/08/03 06:51:11;;;;;;;14.25;1.65;;;33.80;38.10;;;;;;4971939;28;20516;-83
2021/08/03 06:53:44;;;;;;;4.38;1.40;;;34.10;37.50;;;;;;4987535;28;20022;-83
2021/08/03 06:56:10;;;;;;;5.57;1.30;;;34.10;38.00;;;;;;4989489;28;20034;-83
2021/08/03 06:58:47;;;;;;;7.18;1.58;;;33.60;38.40;;;;;;4989304;28;20026;-82
2021/08/03 07:01:18;;;;;;;2.78;0.90;;;33.20;39.10;;;;;;4988121;28;20053;-81
2021/08/03 07:03:47;;;;;;;7.30;1.05;;;33.10;39.60;;;;;;4989419;28;20214;-83
2021/08/03 07:06:17;;;;;;;5.65;1.40;;;33.30;38.80;;;;;;4989352;28;20030;-83
2021/08/03 07:08:44;;;;;;;3.05;0.90;;;33.70;37.40;;;;;;4987607;28;20125;-83
2021/08/03 07:11:10;;;;;;;2.83;1.00;;;33.10;37.90;;;;;;4987486;28;20026;-83
2021/08/03 07:13:37;;;;;;;6.30;1.13;;;33.00;37.90;;;;;;4987783;28;20041;-83
2021/08/03 07:16:03;;;;;;;6.70;1.05;;;33.00;38.40;;;;;;4987755;28;20041;-83
2021/08/03 07:18:29;;;;;;;3.28;0.95;;;32.80;38.20;;;;;;4986663;28;20034;-83
2021/08/03 07:20:56;;;;;;;2.17;1.10;;;32.70;38.60;;;;;;4987663;28;20054;-83
2021/08/03 07:23:23;;;;;;;3.95;1.08;;;33.10;38.60;;;;;;4987842;28;20027;-82
2021/08/03 07:25:50;;;;;;;2.83;1.00;;;33.30;38.40;;;;;;4987699;28;20424;-83
2021/08/03 07:28:17;;;;;;;4.78;1.10;;;33.40;37.90;;;;;;4988536;28;20026;-83
2021/08/03 07:30:42;;;;;;;4.75;1.20;;;33.60;36.90;;;;;;4971570;28;20030;-83
2021/08/03 07:33:15;;;;;;;2.30;0.80;;;33.50;37.10;;;;;;4986723;28;20034;-81
2021/08/03 07:35:42;;;;;;;4.93;1.27;;;33.70;36.70;;;;;;4988701;28;20094;-83
2021/08/03 07:38:09;;;;;;;3.17;1.10;;;33.70;36.50;;;;;;4986689;28;20022;-81
2021/08/03 07:40:36;;;;;;;6.90;1.10;;;33.50;37.80;;;;;;4970916;28;20121;-81
2021/08/03 07:43:03;;;;;;;5.50;1.17;;;33.50;37.70;;;;;;4970445;28;20048;-81
2021/08/03 07:45:29;;;;;;;8.38;1.13;;;33.40;37.40;;;;;;4987327;28;20380;-81
2021/08/03 07:47:55;;;;;;;3.80;0.98;;;33.50;37.20;;;;;;4983584;28;20089;-82
2021/08/03 07:50:21;;;;;;;3.20;1.00;;;34.20;37.80;;;;;;4982906;28;20034;-83
2021/08/03 07:52:46;;;;;;;10.35;1.65;;;34.30;37.00;;;;;;4987739;28;20660;-83
2021/08/03 07:55:12;;;;;;;7.97;1.17;;;34.70;35.60;;;;;;4988214;28;20495;-85
2021/08/03 07:57:38;;;;;;;2.75;0.88;;;34.50;36.40;;;;;;4986756;28;20411;-83
2021/08/03 08:00:04;;;;;;;3.63;1.00;;;34.70;37.20;;;;;;4987098;28;20522;-83
2021/08/03 08:02:29;;;;;;;2.28;1.20;;;34.70;36.30;;;;;;4986460;28;20022;-83
2021/08/03 08:04:56;;;;;;;5.65;1.38;;;34.80;36.20;;;;;;4987049;28;20038;-82
2021/08/03 08:07:21;;;;;;;2.72;1.00;;;34.60;36.00;;;;;;4970036;28;20574;-82
2021/08/03 08:09:47;;;;;;;6.63;1.17;;;34.80;36.10;;;;;;4970650;28;20037;-82
2021/08/03 08:12:13;;;;;;;7.95;0.98;;;34.80;35.40;;;;;;4986268;28;20076;-82
2021/08/03 08:14:38;;;;;;;3.03;0.98;;;34.70;34.80;;;;;;4987962;28;20459;-82
2021/08/03 08:17:05;;;;;;;8.82;1.08;;;34.70;35.40;;;;;;4986230;28;20460;-81
2021/08/03 08:19:30;;;;;;;2.88;0.95;;;34.90;34.90;;;;;;4983404;28;20041;-82
2021/08/03 08:21:56;;;;;;;3.70;0.90;;;35.00;34.50;;;;;;4959078;28;20411;-81
2021/08/03 08:24:22;;;;;;;2.28;0.98;;;35.10;34.70;;;;;;4950870;28;20062;-81
2021/08/03 08:26:48;;;;;;;2.20;0.90;;;35.60;34.00;;;;;;4963863;28;20414;-82
2021/08/03 08:29:17;;;;;;;2.50;0.70;;;35.40;33.90;;;;;;4982267;28;20030;-82
2021/08/03 08:31:44;;;;;;;2.03;1.00;;;34.70;33.80;;;;;;4980609;28;20038;-82
2021/08/03 08:34:10;;;;;;;2.30;1.00;;;34.70;34.00;;;;;;4985618;28;20065;-81
2021/08/03 08:36:36;;;;;;;3.80;0.90;;;35.10;34.00;;;;;;4985527;28;20053;-80
2021/08/03 08:39:02;;;;;;;4.72;1.10;;;35.20;33.30;;;;;;4985821;28;20491;-81
2021/08/03 08:41:28;;;;;;;7.78;1.08;;;35.30;34.20;;;;;;4986067;28;20026;-81
2021/08/03 08:43:55;;;;;;;1.90;0.98;;;35.30;34.90;;;;;;4986077;28;20034;-82
2021/08/03 08:46:20;;;;;;;3.17;1.02;;;35.40;35.00;;;;;;4985912;28;20030;-83
2021/08/03 08:48:48;;;;;;;3.97;1.55;;;35.50;33.90;;;;;;4969847;28;20109;-82
2021/08/03 08:51:14;;;;;;;3.35;1.10;;;35.40;34.20;;;;;;4969092;28;20494;-82
2021/08/03 08:53:39;;;;;;;2.90;0.95;;;35.20;34.30;;;;;;4987446;28;20329;-83
2021/08/03 08:56:06;;;;;;;1.88;0.77;;;35.10;34.60;;;;;;4985411;28;20034;-82
2021/08/03 08:58:33;;;;;;;5.82;1.25;;;34.70;34.60;;;;;;4985998;28;20416;-82
2021/08/03 09:00:59;;;;;;;1.48;0.73;;;34.80;34.80;;;;;;4985534;28;20034;-82
2021/08/03 09:03:25;;;;;;;1.80;0.90;;;34.80;34.00;;;;;;4984785;28;20026;-82
2021/08/03 09:06:02;;;;;;;2.25;1.00;;;35.20;34.40;;;;;;4983490;28;20475;-83
2021/08/03 09:08:38;;;;;;;1.95;0.70;;;35.60;32.90;;;;;;4984424;28;20026;-81
2021/08/03 09:11:13;;;;;;;1.25;0.60;;;35.50;31.40;;;;;;4983845;28;20038;-82
2021/08/03 09:13:57;;;;;;;2.73;1.00;;;35.90;31.70;;;;;;4985927;28;20019;-83
2021/08/03 09:16:25;;;;;;;2.15;0.60;;;36.10;30.60;;;;;;4983559;28;20426;-82
2021/08/03 09:18:53;;;;;;;1.33;0.70;;;35.80;31.30;;;;;;4985903;28;20114;-82
2021/08/03 09:21:27;;;;;;;5.68;1.02;;;35.90;31.10;;;;;;4979253;28;20060;-82
2021/08/03 09:24:01;;;;;;;3.13;0.80;;;36.10;30.40;;;;;;4986547;28;20030;-82
2021/08/03 09:26:49;;;;;;;1.85;0.60;;;36.30;29.40;;;;;;4984505;28;20681;-82
2021/08/03 09:29:16;;;;;;;1.38;0.75;;;36.20;29.80;;;;;;4984305;28;20038;-82
2021/08/03 09:31:54;;;;;;;1.38;0.57;;;36.30;29.80;;;;;;4984539;28;20598;-81
2021/08/03 09:34:20;;;;;;;2.65;0.70;;;36.40;29.20;;;;;;4986736;28;20558;-82
2021/08/03 09:36:53;;;;;;;1.75;0.80;;;36.60;29.70;;;;;;4968524;28;20073;-82
2021/08/03 09:39:38;;;;;;;2.08;0.68;;;36.70;29.10;;;;;;4986315;28;20041;-81
2021/08/03 09:42:05;;;;;;;2.85;0.60;;;36.70;29.40;;;;;;4972326;28;20039;-81
2021/08/03 09:44:31;;;;;;;1.10;0.70;;;36.50;30.00;;;;;;4991273;28;20026;-82
2021/08/03 09:46:57;;;;;;;1.77;0.77;;;36.50;29.80;;;;;;4988512;28;20049;-82
2021/08/03 09:49:41;;;;;;;2.33;0.60;;;36.70;30.00;;;;;;4988429;28;20514;-82
2021/08/03 09:52:15;;;;;;;1.70;0.65;;;37.20;30.00;;;;;;4988880;28;20814;-82
2021/08/03 09:54:42;;;;;;;1.77;0.75;;;37.00;29.00;;;;;;4989225;28;20041;-83
2021/08/03 09:57:25;;;;;;;1.50;0.55;;;37.00;27.20;;;;;;4989435;28;20567;-82
2021/08/03 09:59:55;;;;;;;7.65;0.80;;;35.80;28.20;;;;;;4987549;28;20030;-82
2021/08/03 10:02:23;;;;;;;1.88;0.73;;;35.60;29.50;;;;;;4988467;28;20034;-82
2021/08/03 10:04:50;;;;;;;1.70;0.95;;;35.60;30.30;;;;;;4989173;28;20105;-82
2021/08/03 10:07:16;;;;;;;1.00;0.65;;;35.60;30.10;;;;;;4987842;28;20483;-81
2021/08/03 10:09:43;;;;;;;1.40;0.73;;;35.80;29.80;;;;;;4988358;28;20122;-80
2021/08/03 10:12:10;;;;;;;1.92;0.70;;;36.00;29.40;;;;;;4987655;28;20100;-82
2021/08/03 10:14:36;;;;;;;1.48;0.70;;;36.00;28.70;;;;;;4989162;28;20041;-82
2021/08/03 10:17:02;;;;;;;3.28;0.60;;;35.70;29.30;;;;;;4971422;28;20642;-81
2021/08/03 10:19:36;;;;;;;1.33;0.60;;;35.30;29.50;;;;;;4988810;28;20628;-81
2021/08/03 10:22:23;;;;;;;1.05;0.65;;;34.60;30.00;;;;;;4988066;28;20546;-82
2021/08/03 10:24:57;;;;;;;4.05;0.60;;;34.20;30.10;;;;;;4990103;28;20127;-82
2021/08/03 10:27:37;;;;;;;7.00;0.50;;;33.80;30.90;;;;;;4988552;28;20176;-82
2021/08/03 10:30:03;;;;;;;1.88;0.50;;;33.30;30.00;;;;;;4972336;28;20026;-82
2021/08/03 10:32:44;;;;;;;0.77;0.50;;;33.00;29.60;;;;;;4989804;28;20065;-80
2021/08/03 10:35:18;;;;;;;0.95;0.40;;;32.60;29.80;;;;;;4987894;28;20072;-81
2021/08/03 10:38:09;;;;;;;2.03;0.80;;;32.10;30.70;;;;;;4989715;28;20026;-81
2021/08/03 10:40:44;;;;;;;1.35;0.60;;;31.90;31.40;;;;;;4989437;28;20041;-81
2021/08/03 10:43:26;;;;;;;1.00;0.60;;;31.90;32.00;;;;;;4989551;28;20616;-82
2021/08/03 10:46:07;;;;;;;1.63;0.70;;;32.10;32.40;;;;;;4988648;28;20031;-81
2021/08/03 10:48:38;;;;;;;3.40;0.52;;;32.30;32.50;;;;;;4971427;28;20085;-81
2021/08/03 10:51:13;;;;;;;5.22;0.70;;;32.40;32.40;;;;;;4971441;28;20034;-79
2021/08/03 10:54:16;;;;;;;4.22;0.70;;;32.40;31.90;;;;;;4987976;28;20033;-81
2021/08/03 10:56:59;;;;;;;1.30;0.50;;;32.30;33.10;;;;;;4988213;28;20042;-82
2021/08/03 10:59:34;;;;;;;1.20;0.60;;;32.10;32.40;;;;;;4971129;28;20026;-81
2021/08/03 11:02:03;;;;;;;1.92;0.60;;;31.90;32.30;;;;;;4970714;28;20034;-82
2021/08/03 11:04:41;;;;;;;2.85;0.50;;;31.60;31.70;;;;;;4971672;28;20088;-81
2021/08/03 11:07:34;;;;;;;4.50;0.50;;;31.60;32.20;;;;;;4971043;28;20057;-80
2021/08/03 11:10:19;;;;;;;3.35;0.70;;;31.60;31.80;;;;;;4985310;28;20536;-81
2021/08/03 11:12:48;;;;;;;1.45;0.50;;;31.50;31.30;;;;;;4971557;28;20100;-81
2021/08/03 11:15:20;;;;;;;1.15;0.47;;;31.30;30.90;;;;;;4989039;28;20030;-81
2021/08/03 11:17:51;;;;;;;1.98;0.63;;;31.30;31.50;;;;;;4971089;28;20031;-81
2021/08/03 11:20:35;;;;;;;1.23;0.60;;;31.30;31.30;;;;;;4970844;28;20582;-81
2021/08/03 11:23:13;;;;;;;1.40;0.50;;;31.20;31.00;;;;;;4988714;28;20040;-81
2021/08/03 11:25:41;;;;;;;3.67;0.88;;;31.10;32.00;;;;;;4990214;28;20026;-81
2021/08/03 11:28:18;;;;;;;1.92;0.50;;;31.10;32.30;;;;;;4988484;28;20165;-81
2021/08/03 11:30:50;;;;;;;2.35;0.57;;;31.10;32.40;;;;;;4986994;28;20783;-80
2021/08/03 11:33:18;;;;;;;1.00;0.45;;;31.20;31.50;;;;;;4988475;28;20061;-81
2021/08/03 11:35:43;;;;;;;4.30;0.75;;;31.30;32.40;;;;;;4986257;28;20388;-81
2021/08/03 11:38:11;;;;;;;1.95;0.50;;;31.40;33.00;;;;;;4987473;28;20137;-80
2021/08/03 11:40:38;;;;;;;3.25;0.57;;;31.50;32.60;;;;;;4988481;28;20388;-81
2021/08/03 11:43:05;;;;;;;1.30;0.60;;;31.60;32.60;;;;;;4988014;28;20068;-80
2021/08/03 11:45:33;;;;;;;1.17;0.52;;;31.40;32.90;;;;;;4987280;28;20030;-81
2021/08/03 11:48:02;;;;;;;1.50;0.77;;;31.30;33.60;;;;;;4988099;28;20495;-80
2021/08/03 11:50:34;;;;;;;1.90;0.73;;;31.30;33.10;;;;;;4986515;28;20030;-81
2021/08/03 11:53:11;;;;;;;4.90;0.60;;;31.20;33.80;;;;;;4986974;28;20034;-80
2021/08/03 11:55:58;;;;;;;1.63;0.60;;;31.00;35.50;;;;;;4988913;28;20050;-82
2021/08/03 11:58:27;;;;;;;6.20;0.77;;;30.90;34.60;;;;;;4969883;28;20066;-81
2021/08/03 12:00:54;;;;;;;2.03;0.75;;;30.80;35.60;;;;;;4987099;28;20041;-81
2021/08/03 12:03:34;;;;;;;4.03;0.50;;;30.70;36.50;;;;;;4986217;28;20157;-81
2021/08/03 12:06:01;;;;;;;1.90;0.82;;;30.50;36.80;;;;;;4987943;28;20029;-81
2021/08/03 12:08:35;;;;;;;2.65;0.60;;;30.20;37.20;;;;;;4986424;28;20080;-81
2021/08/03 12:11:00;;;;;;;0.95;0.73;;;30.10;38.40;;;;;;4987893;28;20411;-81
2021/08/03 12:13:35;;;;;;;4.82;0.77;;;30.00;38.30;;;;;;4988119;28;20030;-81
2021/08/03 12:16:03;;;;;;;1.45;0.70;;;29.80;38.50;;;;;;4970509;28;20162;-81
2021/08/03 12:18:40;;;;;;;5.68;0.90;;;29.80;38.50;;;;;;4986157;28;20062;-81
2021/08/03 12:21:07;;;;;;;4.60;0.70;;;29.80;38.80;;;;;;4985723;28;20050;-81
2021/08/03 12:23:35;;;;;;;2.55;0.77;;;29.70;39.20;;;;;;4987964;28;20033;-81
2021/08/03 12:26:03;;;;;;;2.65;0.60;;;29.70;38.80;;;;;;4987748;28;20038;-81
2021/08/03 12:28:30;;;;;;;0.63;0.50;;;29.70;38.10;;;;;;4970396;28;20029;-79
2021/08/03 12:30:59;;;;;;;1.85;0.75;;;29.70;38.90;;;;;;4987704;28;20053;-83
2021/08/03 12:33:30;;;;;;;2.85;0.60;;;29.70;39.10;;;;;;4986025;28;20031;-81
2021/08/03 12:36:04;;;;;;;2.55;0.60;;;29.70;38.90;;;;;;4985881;28;20149;-81
2021/08/03 12:38:30;;;;;;;1.65;0.55;;;29.60;39.30;;;;;;4986549;28;20054;-81
2021/08/03 12:40:56;;;;;;;1.55;0.70;;;29.60;39.40;;;;;;4970002;28;20068;-81
2021/08/03 12:43:42;;;;;;;0.70;0.50;;;29.60;38.90;;;;;;4985925;28;20050;-80
2021/08/03 12:46:08;;;;;;;4.78;0.63;;;29.80;39.50;;;;;;4969119;28;20039;-81
2021/08/03 12:48:34;;;;;;;2.78;0.90;;;29.70;39.10;;;;;;4986054;28;20283;-81
2021/08/03 12:51:03;;;;;;;1.77;0.77;;;29.70;39.30;;;;;;4987362;28;20705;-79
2021/08/03 12:53:32;;;;;;;2.45;0.90;;;29.80;39.90;;;;;;4987151;28;20081;-81
2021/08/03 12:56:27;;;;;;;9.05;0.70;;;29.80;39.30;;;;;;4985899;28;20128;-80
2021/08/03 12:58:52;;;;;;;4.22;0.90;;;29.80;39.00;;;;;;4985880;28;20026;-83
2021/08/03 13:01:19;;;;;;;5.93;0.90;;;29.80;39.30;;;;;;4986659;28;20486;-80
2021/08/03 13:03:46;;;;;;;1.38;0.65;;;29.80;39.20;;;;;;4985962;28;20026;-81
2021/08/03 13:06:12;;;;;;;6.40;1.00;;;29.60;38.20;;;;;;4985547;28;20506;-82
2021/08/03 13:08:38;;;;;;;2.47;1.10;;;29.40;39.30;;;;;;4985928;28;20073;-79
2021/08/03 13:11:04;;;;;;;8.38;1.00;;;29.20;39.10;;;;;;4986668;28;20031;-79
2021/08/03 13:13:30;;;;;;;2.15;0.70;;;29.00;39.30;;;;;;4986935;28;20026;-81
2021/08/03 13:15:56;;;;;;;2.80;0.60;;;28.60;39.70;;;;;;4969163;28;20048;-80
2021/08/03 13:18:22;;;;;;;5.78;0.70;;;28.40;40.90;;;;;;4985435;28;20113;-80
2021/08/03 13:20:48;;;;;;;1.80;0.50;;;28.10;41.30;;;;;;4985344;28;20507;-80
2021/08/03 13:23:14;;;;;;;1.52;0.75;;;28.00;41.10;;;;;;4969822;28;20122;-80
2021/08/03 13:25:40;;;;;;;4.13;1.45;;;28.00;41.40;;;;;;4969753;28;20027;-80
2021/08/03 13:28:05;;;;;;;1.45;0.75;;;28.00;41.90;;;;;;4985176;28;20035;-80
2021/08/03 13:30:31;;;;;;;1.25;0.50;;;28.00;41.70;;;;;;4987114;28;20573;-80
2021/08/03 13:32:57;;;;;;;1.85;0.60;;;28.00;40.00;;;;;;4985686;28;20034;-80
2021/08/03 13:35:23;;;;;;;1.77;0.80;;;27.90;40.50;;;;;;4969050;28;20080;-81
2021/08/03 13:37:49;;;;;;;2.10;0.60;;;27.80;41.20;;;;;;4985645;28;20509;-79
2021/08/03 13:40:14;;;;;;;4.93;0.80;;;27.80;41.30;;;;;;4985491;28;20026;-81
2021/08/03 13:42:40;;;;;;;0.93;0.50;;;28.00;40.40;;;;;;4987028;28;20034;-80
2021/08/03 13:45:07;;;;;;;4.85;1.50;;;28.20;39.90;;;;;;4985713;28;20030;-79
2021/08/03 13:47:33;;;;;;;1.85;1.00;;;28.40;40.20;;;;;;4968825;28;20572;-80